sensor_id;sensor_type;location;lat;lon;timestamp;temperature;humidity
18083;DHT22;9168;51.194;6.840;2022-12-18T00:01:57;-2.30;99.90
18083;DHT22;9168;51.194;6.840;2022-12-18T00:04:25;-2.40;99.90
18083;DHT22;9168;51.194;6.840;2022-12-18T00:06:53;-2.40;99.90
18083;DHT22;9168;51.194;6.840;2022-12-18T00:09:20;-2.30;99.90
18083;DHT22;9168;51.194;6.840;2022-12-18T00:11:47;-2.30;99.90
18083;DHT22;9168;51.194;6.840;2022-12-18T00:14:16;-2.30;99.90
18083;DHT22;9168;51.194;6.840;2022-12-18T00:16:44;-2.40;99.90
18083;DHT22;9168;51.194;6.840;2022-12-18T00:19:12;-2.40;99.90
18083;DHT22;9168;51.194;6.840;2022-12-18T00:21:39;-2.40;99.90
18083;DHT22;9168;51.194;6.840;2022-12-18T00:24:06;-2.50;99.90
18083;DHT22;9168;51.194;6.840;2022-12-18T00:26:35;-2.50;99.90
18083;DHT22;9168;51.194;6.840;2022-12-18T00:29:04;-2.50;99.90
18083;DHT22;9168;51.194;6.840;2022-12-18T00:31:34;-2.50;99.90
18083;DHT22;9168;51.194;6.840;2022-12-18T00:34:01;-2.60;99.90
18083;DHT22;9168;51.194;6.840;2022-12-18T00:36:29;-2.60;99.90
18083;DHT22;9168;51.194;6.840;2022-12-18T00:38:57;-2.70;99.90
18083;DHT22;9168;51.194;6.840;2022-12-18T00:41:27;-2.70;99.90
18083;DHT22;9168;51.194;6.840;2022-12-18T00:44:13;-2.80;99.90
18083;DHT22;9168;51.194;6.840;2022-12-18T00:46:42;-2.90;99.90
18083;DHT22;9168;51.194;6.840;2022-12-18T00:49:09;-2.90;99.90
18083;DHT22;9168;51.194;6.840;2022-12-18T00:51:36;-2.90;99.90
18083;DHT22;9168;51.194;6.840;2022-12-18T00:54:05;-3.00;99.90
18083;DHT22;9168;51.194;6.840;2022-12-18T00:56:32;-3.00;99.90
18083;DHT22;9168;51.194;6.840;2022-12-18T00:58:59;-3.10;99.90
18083;DHT22;9168;51.194;6.840;2022-12-18T01:01:26;-3.10;99.90
18083;DHT22;9168;51.194;6.840;2022-12-18T01:03:54;-3.10;99.90
18083;DHT22;9168;51.194;6.840;2022-12-18T01:06:21;-3.20;99.90
18083;DHT22;9168;51.194;6.840;2022-12-18T01:08:47;-3.20;99.90
18083;DHT22;9168;51.194;6.840;2022-12-18T01:11:16;-3.20;99.90
18083;DHT22;9168;51.194;6.840;2022-12-18T01:13:44;-3.20;99.90
18083;DHT22;9168;51.194;6.840;2022-12-18T01:16:12;-3.30;99.90
18083;DHT22;9168;51.194;6.840;2022-12-18T01:18:39;-3.30;99.90
18083;DHT22;9168;51.194;6.840;2022-12-18T01:21:09;-3.30;99.90
18083;DHT22;9168;51.194;6.840;2022-12-18T01:23:37;-3.30;99.90
18083;DHT22;9168;51.194;6.840;2022-12-18T01:26:05;-3.40;99.90
18083;DHT22;9168;51.194;6.840;2022-12-18T01:28:32;-3.40;99.90
18083;DHT22;9168;51.194;6.840;2022-12-18T01:31:10;-3.50;99.90
18083;DHT22;9168;51.194;6.840;2022-12-18T01:33:37;-3.50;99.90
18083;DHT22;9168;51.194;6.840;2022-12-18T01:36:04;-3.50;99.90
18083;DHT22;9168;51.194;6.840;2022-12-18T01:38:33;-3.50;99.90
18083;DHT22;9168;51.194;6.840;2022-12-18T01:41:00;-3.50;99.90
18083;DHT22;9168;51.194;6.840;2022-12-18T01:43:45;-3.40;99.90
18083;DHT22;9168;51.194;6.840;2022-12-18T01:46:12;-3.40;99.90
18083;DHT22;9168;51.194;6.840;2022-12-18T01:48:40;-3.30;99.90
18083;DHT22;9168;51.194;6.840;2022-12-18T01:51:09;-3.30;99.90
18083;DHT22;9168;51.194;6.840;2022-12-18T01:53:41;-3.30;99.90
18083;DHT22;9168;51.194;6.840;2022-12-18T01:56:12;-3.30;99.90
18083;DHT22;9168;51.194;6.840;2022-12-18T01:58:44;-3.40;99.90
18083;DHT22;9168;51.194;6.840;2022-12-18T02:01:13;-3.30;99.90
18083;DHT22;9168;51.194;6.840;2022-12-18T02:03:41;-3.30;99.90
18083;DHT22;9168;51.194;6.840;2022-12-18T02:06:13;-3.30;99.90
18083;DHT22;9168;51.194;6.840;2022-12-18T02:08:50;-3.30;99.90
18083;DHT22;9168;51.194;6.840;2022-12-18T02:11:27;-3.40;99.90
18083;DHT22;9168;51.194;6.840;2022-12-18T02:14:04;-3.40;99.90
18083;DHT22;9168;51.194;6.840;2022-12-18T02:16:43;-3.40;99.90
18083;DHT22;9168;51.194;6.840;2022-12-18T02:19:32;-3.40;99.90
18083;DHT22;9168;51.194;6.840;2022-12-18T02:22:24;-3.50;99.90
18083;DHT22;9168;51.194;6.840;2022-12-18T02:25:02;-3.50;99.90
18083;DHT22;9168;51.194;6.840;2022-12-18T02:27:34;-3.50;99.90
18083;DHT22;9168;51.194;6.840;2022-12-18T02:30:04;-3.50;99.90
18083;DHT22;9168;51.194;6.840;2022-12-18T02:32:35;-3.50;99.90
18083;DHT22;9168;51.194;6.840;2022-12-18T02:35:06;-3.40;99.90
18083;DHT22;9168;51.194;6.840;2022-12-18T02:37:34;-3.40;99.90
18083;DHT22;9168;51.194;6.840;2022-12-18T02:40:04;-3.40;99.90
18083;DHT22;9168;51.194;6.840;2022-12-18T02:42:33;-3.30;99.90
18083;DHT22;9168;51.194;6.840;2022-12-18T02:45:00;-3.30;99.90
18083;DHT22;9168;51.194;6.840;2022-12-18T02:47:30;-3.30;99.90
18083;DHT22;9168;51.194;6.840;2022-12-18T02:50:05;-3.20;99.90
18083;DHT22;9168;51.194;6.840;2022-12-18T02:52:38;-3.10;99.90
18083;DHT22;9168;51.194;6.840;2022-12-18T02:55:16;-3.20;99.90
18083;DHT22;9168;51.194;6.840;2022-12-18T02:57:50;-3.20;99.90
18083;DHT22;9168;51.194;6.840;2022-12-18T03:00:22;-3.30;99.90
18083;DHT22;9168;51.194;6.840;2022-12-18T03:02:55;-3.40;99.90
18083;DHT22;9168;51.194;6.840;2022-12-18T03:05:27;-3.40;99.90
18083;DHT22;9168;51.194;6.840;2022-12-18T03:07:58;-3.50;99.90
18083;DHT22;9168;51.194;6.840;2022-12-18T03:10:32;-3.50;99.90
18083;DHT22;9168;51.194;6.840;2022-12-18T03:13:04;-3.50;99.90
18083;DHT22;9168;51.194;6.840;2022-12-18T03:15:36;-3.40;99.90
18083;DHT22;9168;51.194;6.840;2022-12-18T03:18:08;-3.40;99.90
18083;DHT22;9168;51.194;6.840;2022-12-18T03:20:39;-3.40;99.90
18083;DHT22;9168;51.194;6.840;2022-12-18T03:23:10;-3.40;99.90
18083;DHT22;9168;51.194;6.840;2022-12-18T03:25:41;-3.40;99.90
18083;DHT22;9168;51.194;6.840;2022-12-18T03:28:13;-3.50;99.90
18083;DHT22;9168;51.194;6.840;2022-12-18T03:30:41;-3.50;99.90
18083;DHT22;9168;51.194;6.840;2022-12-18T03:33:14;-3.50;99.90
18083;DHT22;9168;51.194;6.840;2022-12-18T03:35:43;-3.50;99.90
18083;DHT22;9168;51.194;6.840;2022-12-18T03:38:11;-3.50;99.90
18083;DHT22;9168;51.194;6.840;2022-12-18T03:40:45;-3.50;99.90
18083;DHT22;9168;51.194;6.840;2022-12-18T03:43:20;-3.50;99.90
18083;DHT22;9168;51.194;6.840;2022-12-18T03:45:54;-3.60;99.90
18083;DHT22;9168;51.194;6.840;2022-12-18T03:48:27;-3.60;99.90
18083;DHT22;9168;51.194;6.840;2022-12-18T03:50:58;-3.60;99.90
18083;DHT22;9168;51.194;6.840;2022-12-18T03:53:34;-3.60;99.90
18083;DHT22;9168;51.194;6.840;2022-12-18T03:56:04;-3.70;99.90
18083;DHT22;9168;51.194;6.840;2022-12-18T03:58:35;-3.70;99.90
18083;DHT22;9168;51.194;6.840;2022-12-18T04:01:05;-3.70;99.90
18083;DHT22;9168;51.194;6.840;2022-12-18T04:03:34;-3.70;99.90
18083;DHT22;9168;51.194;6.840;2022-12-18T04:06:02;-3.70;99.90
18083;DHT22;9168;51.194;6.840;2022-12-18T04:08:30;-3.60;99.90
18083;DHT22;9168;51.194;6.840;2022-12-18T04:10:57;-3.70;99.90
18083;DHT22;9168;51.194;6.840;2022-12-18T04:13:24;-3.70;99.90
18083;DHT22;9168;51.194;6.840;2022-12-18T04:15:53;-3.70;99.90
18083;DHT22;9168;51.194;6.840;2022-12-18T04:18:20;-3.80;99.90
18083;DHT22;9168;51.194;6.840;2022-12-18T04:20:46;-3.80;99.90
18083;DHT22;9168;51.194;6.840;2022-12-18T04:23:13;-3.80;99.90
18083;DHT22;9168;51.194;6.840;2022-12-18T04:25:40;-3.90;99.90
18083;DHT22;9168;51.194;6.840;2022-12-18T04:28:07;-3.90;99.90
18083;DHT22;9168;51.194;6.840;2022-12-18T04:30:34;-3.90;99.90
18083;DHT22;9168;51.194;6.840;2022-12-18T04:33:03;-4.00;99.90
18083;DHT22;9168;51.194;6.840;2022-12-18T04:35:29;-4.00;99.90
18083;DHT22;9168;51.194;6.840;2022-12-18T04:37:56;-4.00;99.90
18083;DHT22;9168;51.194;6.840;2022-12-18T04:40:23;-4.00;99.90
18083;DHT22;9168;51.194;6.840;2022-12-18T04:42:50;-4.00;99.90
18083;DHT22;9168;51.194;6.840;2022-12-18T04:45:17;-4.00;99.90
18083;DHT22;9168;51.194;6.840;2022-12-18T04:47:44;-4.00;99.90
18083;DHT22;9168;51.194;6.840;2022-12-18T04:50:12;-4.10;99.90
18083;DHT22;9168;51.194;6.840;2022-12-18T04:52:39;-4.10;99.90
18083;DHT22;9168;51.194;6.840;2022-12-18T04:55:06;-4.10;99.90
18083;DHT22;9168;51.194;6.840;2022-12-18T04:57:33;-4.10;99.90
18083;DHT22;9168;51.194;6.840;2022-12-18T05:00:00;-4.10;99.90
18083;DHT22;9168;51.194;6.840;2022-12-18T05:02:27;-4.10;99.90
18083;DHT22;9168;51.194;6.840;2022-12-18T05:04:54;-4.10;99.90
18083;DHT22;9168;51.194;6.840;2022-12-18T05:07:22;-4.10;99.90
18083;DHT22;9168;51.194;6.840;2022-12-18T05:09:49;-4.10;99.90
18083;DHT22;9168;51.194;6.840;2022-12-18T05:12:16;-4.10;99.90
18083;DHT22;9168;51.194;6.840;2022-12-18T05:14:43;-4.00;99.90
18083;DHT22;9168;51.194;6.840;2022-12-18T05:17:09;-4.00;99.90
18083;DHT22;9168;51.194;6.840;2022-12-18T05:19:38;-4.00;99.90
18083;DHT22;9168;51.194;6.840;2022-12-18T05:22:07;-4.00;99.90
18083;DHT22;9168;51.194;6.840;2022-12-18T05:24:36;-4.00;99.90
18083;DHT22;9168;51.194;6.840;2022-12-18T05:27:03;-3.90;99.90
18083;DHT22;9168;51.194;6.840;2022-12-18T05:29:30;-3.80;99.90
18083;DHT22;9168;51.194;6.840;2022-12-18T05:31:57;-3.80;99.90
18083;DHT22;9168;51.194;6.840;2022-12-18T05:34:24;-3.80;99.90
18083;DHT22;9168;51.194;6.840;2022-12-18T05:36:51;-3.70;99.90
18083;DHT22;9168;51.194;6.840;2022-12-18T05:39:18;-3.60;99.90
18083;DHT22;9168;51.194;6.840;2022-12-18T05:41:46;-3.60;99.90
18083;DHT22;9168;51.194;6.840;2022-12-18T05:44:13;-3.50;99.90
18083;DHT22;9168;51.194;6.840;2022-12-18T05:46:40;-3.50;99.90
18083;DHT22;9168;51.194;6.840;2022-12-18T05:49:07;-3.40;99.90
18083;DHT22;9168;51.194;6.840;2022-12-18T05:51:33;-3.30;99.90
18083;DHT22;9168;51.194;6.840;2022-12-18T05:54:00;-3.20;99.90
18083;DHT22;9168;51.194;6.840;2022-12-18T05:56:27;-3.20;99.90
18083;DHT22;9168;51.194;6.840;2022-12-18T05:58:55;-3.10;99.90
18083;DHT22;9168;51.194;6.840;2022-12-18T06:01:25;-3.10;99.90
18083;DHT22;9168;51.194;6.840;2022-12-18T06:03:53;-3.10;99.90
18083;DHT22;9168;51.194;6.840;2022-12-18T06:06:21;-3.10;99.90
18083;DHT22;9168;51.194;6.840;2022-12-18T06:08:49;-3.10;99.90
18083;DHT22;9168;51.194;6.840;2022-12-18T06:11:18;-3.10;99.90
18083;DHT22;9168;51.194;6.840;2022-12-18T06:13:46;-3.10;99.90
18083;DHT22;9168;51.194;6.840;2022-12-18T06:16:14;-3.10;99.90
18083;DHT22;9168;51.194;6.840;2022-12-18T06:18:41;-3.10;99.90
18083;DHT22;9168;51.194;6.840;2022-12-18T06:21:08;-3.10;99.90
18083;DHT22;9168;51.194;6.840;2022-12-18T06:23:35;-3.10;99.90
18083;DHT22;9168;51.194;6.840;2022-12-18T06:26:04;-3.20;99.90
18083;DHT22;9168;51.194;6.840;2022-12-18T06:28:31;-3.20;99.90
18083;DHT22;9168;51.194;6.840;2022-12-18T06:30:59;-3.20;99.90
18083;DHT22;9168;51.194;6.840;2022-12-18T06:33:27;-3.20;99.90
18083;DHT22;9168;51.194;6.840;2022-12-18T06:35:58;-3.30;99.90
18083;DHT22;9168;51.194;6.840;2022-12-18T06:38:26;-3.30;99.90
18083;DHT22;9168;51.194;6.840;2022-12-18T06:40:52;-3.30;99.90
18083;DHT22;9168;51.194;6.840;2022-12-18T06:43:19;-3.30;99.90
18083;DHT22;9168;51.194;6.840;2022-12-18T06:45:46;-3.20;99.90
18083;DHT22;9168;51.194;6.840;2022-12-18T06:48:18;-3.20;99.90
18083;DHT22;9168;51.194;6.840;2022-12-18T06:50:46;-3.10;99.90
18083;DHT22;9168;51.194;6.840;2022-12-18T06:53:13;-3.10;99.90
18083;DHT22;9168;51.194;6.840;2022-12-18T06:55:40;-3.00;99.90
18083;DHT22;9168;51.194;6.840;2022-12-18T06:58:07;-3.00;99.90
18083;DHT22;9168;51.194;6.840;2022-12-18T07:00:34;-2.90;99.90
18083;DHT22;9168;51.194;6.840;2022-12-18T07:03:01;-2.90;99.90
18083;DHT22;9168;51.194;6.840;2022-12-18T07:05:28;-2.80;99.90
18083;DHT22;9168;51.194;6.840;2022-12-18T07:07:57;-2.70;99.90
18083;DHT22;9168;51.194;6.840;2022-12-18T07:10:24;-2.70;99.90
18083;DHT22;9168;51.194;6.840;2022-12-18T07:12:50;-2.70;99.90
18083;DHT22;9168;51.194;6.840;2022-12-18T07:15:17;-2.60;99.90
18083;DHT22;9168;51.194;6.840;2022-12-18T07:17:44;-2.60;99.90
18083;DHT22;9168;51.194;6.840;2022-12-18T07:20:11;-2.60;99.90
18083;DHT22;9168;51.194;6.840;2022-12-18T07:22:38;-2.60;99.90
18083;DHT22;9168;51.194;6.840;2022-12-18T07:25:07;-2.50;99.90
18083;DHT22;9168;51.194;6.840;2022-12-18T07:27:34;-2.50;99.90
18083;DHT22;9168;51.194;6.840;2022-12-18T07:30:01;-2.50;99.90
18083;DHT22;9168;51.194;6.840;2022-12-18T07:32:28;-2.50;99.90
18083;DHT22;9168;51.194;6.840;2022-12-18T07:34:56;-2.50;99.90
18083;DHT22;9168;51.194;6.840;2022-12-18T07:37:23;-2.50;99.90
18083;DHT22;9168;51.194;6.840;2022-12-18T07:39:50;-2.50;99.90
18083;DHT22;9168;51.194;6.840;2022-12-18T07:42:18;-2.50;99.90
18083;DHT22;9168;51.194;6.840;2022-12-18T07:44:57;-2.50;99.90
18083;DHT22;9168;51.194;6.840;2022-12-18T07:47:24;-2.50;99.90
18083;DHT22;9168;51.194;6.840;2022-12-18T07:49:51;-2.40;99.90
18083;DHT22;9168;51.194;6.840;2022-12-18T07:52:18;-2.40;99.90
18083;DHT22;9168;51.194;6.840;2022-12-18T07:54:45;-2.40;99.90
18083;DHT22;9168;51.194;6.840;2022-12-18T07:57:14;-2.40;99.90
18083;DHT22;9168;51.194;6.840;2022-12-18T07:59:42;-2.30;99.90
18083;DHT22;9168;51.194;6.840;2022-12-18T08:02:09;-2.30;99.90
18083;DHT22;9168;51.194;6.840;2022-12-18T08:04:36;-2.40;99.90
18083;DHT22;9168;51.194;6.840;2022-12-18T08:07:03;-2.40;99.90
18083;DHT22;9168;51.194;6.840;2022-12-18T08:09:30;-2.40;99.90
18083;DHT22;9168;51.194;6.840;2022-12-18T08:11:57;-2.30;99.90
18083;DHT22;9168;51.194;6.840;2022-12-18T08:14:24;-2.30;99.90
18083;DHT22;9168;51.194;6.840;2022-12-18T08:16:52;-2.30;99.90
18083;DHT22;9168;51.194;6.840;2022-12-18T08:19:19;-2.30;99.90
18083;DHT22;9168;51.194;6.840;2022-12-18T08:21:46;-2.30;99.90
18083;DHT22;9168;51.194;6.840;2022-12-18T08:24:13;-2.30;99.90
18083;DHT22;9168;51.194;6.840;2022-12-18T08:26:40;-2.30;99.90
18083;DHT22;9168;51.194;6.840;2022-12-18T08:29:08;-2.20;99.90
18083;DHT22;9168;51.194;6.840;2022-12-18T08:31:35;-2.20;99.90
18083;DHT22;9168;51.194;6.840;2022-12-18T08:34:03;-2.30;99.90
18083;DHT22;9168;51.194;6.840;2022-12-18T08:36:30;-2.20;99.90
18083;DHT22;9168;51.194;6.840;2022-12-18T08:38:57;-2.30;99.90
18083;DHT22;9168;51.194;6.840;2022-12-18T08:41:24;-2.20;99.90
18083;DHT22;9168;51.194;6.840;2022-12-18T08:43:51;-2.10;99.90
18083;DHT22;9168;51.194;6.840;2022-12-18T08:46:38;-2.10;99.90
18083;DHT22;9168;51.194;6.840;2022-12-18T08:49:07;-2.10;99.90
18083;DHT22;9168;51.194;6.840;2022-12-18T08:51:34;-2.10;99.90
18083;DHT22;9168;51.194;6.840;2022-12-18T08:54:02;-2.10;99.90
18083;DHT22;9168;51.194;6.840;2022-12-18T08:56:29;-2.00;99.90
18083;DHT22;9168;51.194;6.840;2022-12-18T08:58:56;-2.00;99.90
18083;DHT22;9168;51.194;6.840;2022-12-18T09:01:24;-1.90;99.90
18083;DHT22;9168;51.194;6.840;2022-12-18T09:03:51;-1.90;99.90
18083;DHT22;9168;51.194;6.840;2022-12-18T09:06:20;-1.80;99.90
18083;DHT22;9168;51.194;6.840;2022-12-18T09:08:48;-1.70;99.90
18083;DHT22;9168;51.194;6.840;2022-12-18T09:11:18;-1.70;99.90
18083;DHT22;9168;51.194;6.840;2022-12-18T09:13:46;-1.60;99.90
18083;DHT22;9168;51.194;6.840;2022-12-18T09:16:12;-1.60;99.90
18083;DHT22;9168;51.194;6.840;2022-12-18T09:18:39;-1.50;99.90
18083;DHT22;9168;51.194;6.840;2022-12-18T09:21:11;-1.40;99.90
18083;DHT22;9168;51.194;6.840;2022-12-18T09:23:39;-1.40;99.90
18083;DHT22;9168;51.194;6.840;2022-12-18T09:26:06;-1.40;99.90
18083;DHT22;9168;51.194;6.840;2022-12-18T09:28:33;-1.30;99.90
18083;DHT22;9168;51.194;6.840;2022-12-18T09:31:05;-1.30;99.90
18083;DHT22;9168;51.194;6.840;2022-12-18T09:33:33;-1.30;99.90
18083;DHT22;9168;51.194;6.840;2022-12-18T09:36:02;-1.20;99.90
18083;DHT22;9168;51.194;6.840;2022-12-18T09:38:29;-1.20;99.90
18083;DHT22;9168;51.194;6.840;2022-12-18T09:41:00;-1.20;99.90
18083;DHT22;9168;51.194;6.840;2022-12-18T09:43:35;-1.10;99.90
18083;DHT22;9168;51.194;6.840;2022-12-18T09:46:07;-1.00;99.90
18083;DHT22;9168;51.194;6.840;2022-12-18T09:48:40;-1.00;99.90
18083;DHT22;9168;51.194;6.840;2022-12-18T09:51:14;-0.90;99.90
18083;DHT22;9168;51.194;6.840;2022-12-18T09:53:46;-0.90;99.90
18083;DHT22;9168;51.194;6.840;2022-12-18T09:56:17;-0.80;99.90
18083;DHT22;9168;51.194;6.840;2022-12-18T09:58:49;-0.80;99.90
18083;DHT22;9168;51.194;6.840;2022-12-18T10:01:21;-0.70;99.90
18083;DHT22;9168;51.194;6.840;2022-12-18T10:03:50;-0.60;99.90
18083;DHT22;9168;51.194;6.840;2022-12-18T10:06:21;-0.50;99.90
18083;DHT22;9168;51.194;6.840;2022-12-18T10:08:56;-0.50;99.90
18083;DHT22;9168;51.194;6.840;2022-12-18T10:11:39;-0.50;99.90
18083;DHT22;9168;51.194;6.840;2022-12-18T10:14:16;-0.50;99.90
18083;DHT22;9168;51.194;6.840;2022-12-18T10:16:57;-0.50;99.90
18083;DHT22;9168;51.194;6.840;2022-12-18T10:19:41;-0.40;99.90
18083;DHT22;9168;51.194;6.840;2022-12-18T10:22:35;-0.30;99.90
18083;DHT22;9168;51.194;6.840;2022-12-18T10:25:09;-0.20;99.90
18083;DHT22;9168;51.194;6.840;2022-12-18T10:27:42;-0.20;99.90
18083;DHT22;9168;51.194;6.840;2022-12-18T10:30:14;-0.10;99.90
18083;DHT22;9168;51.194;6.840;2022-12-18T10:32:41;0.00;99.90
18083;DHT22;9168;51.194;6.840;2022-12-18T10:35:15;0.00;99.90
18083;DHT22;9168;51.194;6.840;2022-12-18T10:37:59;0.10;99.90
18083;DHT22;9168;51.194;6.840;2022-12-18T10:40:26;0.10;99.90
18083;DHT22;9168;51.194;6.840;2022-12-18T10:43:05;0.20;99.90
18083;DHT22;9168;51.194;6.840;2022-12-18T10:45:36;0.20;99.90
18083;DHT22;9168;51.194;6.840;2022-12-18T10:48:04;0.30;99.90
18083;DHT22;9168;51.194;6.840;2022-12-18T10:50:33;0.40;99.90
18083;DHT22;9168;51.194;6.840;2022-12-18T10:53:02;0.50;99.90
18083;DHT22;9168;51.194;6.840;2022-12-18T10:55:32;0.50;99.90
18083;DHT22;9168;51.194;6.840;2022-12-18T10:58:18;0.50;99.90
18083;DHT22;9168;51.194;6.840;2022-12-18T11:01:03;0.60;99.90
18083;DHT22;9168;51.194;6.840;2022-12-18T11:03:33;0.60;99.90
18083;DHT22;9168;51.194;6.840;2022-12-18T11:06:04;0.70;99.90
18083;DHT22;9168;51.194;6.840;2022-12-18T11:08:32;0.70;99.90
18083;DHT22;9168;51.194;6.840;2022-12-18T11:10:59;0.80;99.90
18083;DHT22;9168;51.194;6.840;2022-12-18T11:13:29;0.90;99.90
18083;DHT22;9168;51.194;6.840;2022-12-18T11:15:57;0.90;99.90
18083;DHT22;9168;51.194;6.840;2022-12-18T11:18:27;1.00;99.90
18083;DHT22;9168;51.194;6.840;2022-12-18T11:20:57;1.10;99.90
18083;DHT22;9168;51.194;6.840;2022-12-18T11:23:25;1.10;99.90
18083;DHT22;9168;51.194;6.840;2022-12-18T11:25:55;1.10;99.90
18083;DHT22;9168;51.194;6.840;2022-12-18T11:28:39;1.20;99.90
18083;DHT22;9168;51.194;6.840;2022-12-18T11:31:20;1.30;99.90
18083;DHT22;9168;51.194;6.840;2022-12-18T11:34:00;1.40;99.90
18083;DHT22;9168;51.194;6.840;2022-12-18T11:36:30;1.40;99.90
18083;DHT22;9168;51.194;6.840;2022-12-18T11:39:00;1.40;99.90
18083;DHT22;9168;51.194;6.840;2022-12-18T11:41:32;1.30;99.90
18083;DHT22;9168;51.194;6.840;2022-12-18T11:44:24;1.30;99.90
18083;DHT22;9168;51.194;6.840;2022-12-18T11:46:56;1.30;99.90
18083;DHT22;9168;51.194;6.840;2022-12-18T11:49:30;1.40;99.90
18083;DHT22;9168;51.194;6.840;2022-12-18T11:52:03;1.30;99.90
18083;DHT22;9168;51.194;6.840;2022-12-18T11:54:31;1.30;99.90
18083;DHT22;9168;51.194;6.840;2022-12-18T11:57:04;1.30;99.90
18083;DHT22;9168;51.194;6.840;2022-12-18T11:59:40;1.30;99.90
18083;DHT22;9168;51.194;6.840;2022-12-18T12:02:25;1.20;99.90
18083;DHT22;9168;51.194;6.840;2022-12-18T12:05:04;1.10;99.90
18083;DHT22;9168;51.194;6.840;2022-12-18T12:07:45;1.10;99.90
18083;DHT22;9168;51.194;6.840;2022-12-18T12:10:29;1.00;99.90
18083;DHT22;9168;51.194;6.840;2022-12-18T12:13:12;1.10;99.90
18083;DHT22;9168;51.194;6.840;2022-12-18T12:15:50;1.20;99.90
18083;DHT22;9168;51.194;6.840;2022-12-18T12:18:31;1.20;99.90
18083;DHT22;9168;51.194;6.840;2022-12-18T12:21:05;1.20;99.90
18083;DHT22;9168;51.194;6.840;2022-12-18T12:23:40;1.20;99.90
18083;DHT22;9168;51.194;6.840;2022-12-18T12:26:11;1.20;99.90
18083;DHT22;9168;51.194;6.840;2022-12-18T12:28:52;1.20;99.90
18083;DHT22;9168;51.194;6.840;2022-12-18T12:31:42;1.10;99.90
18083;DHT22;9168;51.194;6.840;2022-12-18T12:34:19;1.10;99.90
18083;DHT22;9168;51.194;6.840;2022-12-18T12:37:01;1.20;99.90
18083;DHT22;9168;51.194;6.840;2022-12-18T12:39:31;1.20;99.90
18083;DHT22;9168;51.194;6.840;2022-12-18T12:42:00;1.10;99.90
18083;DHT22;9168;51.194;6.840;2022-12-18T12:44:48;1.00;99.90
18083;DHT22;9168;51.194;6.840;2022-12-18T12:47:20;1.00;99.90
18083;DHT22;9168;51.194;6.840;2022-12-18T12:49:49;1.00;99.90
18083;DHT22;9168;51.194;6.840;2022-12-18T12:52:24;1.00;99.90
18083;DHT22;9168;51.194;6.840;2022-12-18T12:54:54;1.00;99.90
18083;DHT22;9168;51.194;6.840;2022-12-18T12:57:24;0.90;99.90
18083;DHT22;9168;51.194;6.840;2022-12-18T13:00:01;0.90;99.90
18083;DHT22;9168;51.194;6.840;2022-12-18T13:02:37;0.90;99.90
18083;DHT22;9168;51.194;6.840;2022-12-18T13:05:11;0.90;99.90
18083;DHT22;9168;51.194;6.840;2022-12-18T13:07:49;0.90;99.90
18083;DHT22;9168;51.194;6.840;2022-12-18T13:13:10;0.90;99.90
18083;DHT22;9168;51.194;6.840;2022-12-18T13:15:39;0.90;99.90
18083;DHT22;9168;51.194;6.840;2022-12-18T13:18:20;0.90;99.90
18083;DHT22;9168;51.194;6.840;2022-12-18T13:20:50;0.80;99.90
18083;DHT22;9168;51.194;6.840;2022-12-18T13:23:38;0.70;99.90
18083;DHT22;9168;51.194;6.840;2022-12-18T13:26:30;0.70;99.90
18083;DHT22;9168;51.194;6.840;2022-12-18T13:28:58;0.70;99.90
18083;DHT22;9168;51.194;6.840;2022-12-18T13:34:36;0.70;99.90
18083;DHT22;9168;51.194;6.840;2022-12-18T13:37:41;0.80;99.90
18083;DHT22;9168;51.194;6.840;2022-12-18T13:43:24;0.80;99.90
18083;DHT22;9168;51.194;6.840;2022-12-18T13:46:02;0.80;99.90
18083;DHT22;9168;51.194;6.840;2022-12-18T13:48:32;0.80;99.90
18083;DHT22;9168;51.194;6.840;2022-12-18T13:51:03;0.70;99.90
18083;DHT22;9168;51.194;6.840;2022-12-18T13:53:35;0.80;99.90
18083;DHT22;9168;51.194;6.840;2022-12-18T13:56:05;0.80;99.90
18083;DHT22;9168;51.194;6.840;2022-12-18T13:58:32;0.90;99.90
18083;DHT22;9168;51.194;6.840;2022-12-18T14:00:59;0.90;99.90
18083;DHT22;9168;51.194;6.840;2022-12-18T14:03:29;0.90;99.90
18083;DHT22;9168;51.194;6.840;2022-12-18T14:06:01;0.80;99.90
18083;DHT22;9168;51.194;6.840;2022-12-18T14:08:34;0.80;99.90
18083;DHT22;9168;51.194;6.840;2022-12-18T14:11:04;0.70;99.90
18083;DHT22;9168;51.194;6.840;2022-12-18T14:13:35;0.80;99.90
18083;DHT22;9168;51.194;6.840;2022-12-18T14:16:04;0.80;99.90
18083;DHT22;9168;51.194;6.840;2022-12-18T14:18:38;0.80;99.90
18083;DHT22;9168;51.194;6.840;2022-12-18T14:21:20;0.80;99.90
18083;DHT22;9168;51.194;6.840;2022-12-18T14:23:48;0.80;99.90
18083;DHT22;9168;51.194;6.840;2022-12-18T14:26:23;0.80;99.90
18083;DHT22;9168;51.194;6.840;2022-12-18T14:28:52;0.90;99.90
18083;DHT22;9168;51.194;6.840;2022-12-18T14:31:23;0.90;99.90
18083;DHT22;9168;51.194;6.840;2022-12-18T14:33:51;0.80;99.90
18083;DHT22;9168;51.194;6.840;2022-12-18T14:36:22;0.80;99.90
18083;DHT22;9168;51.194;6.840;2022-12-18T14:38:50;0.80;99.90
18083;DHT22;9168;51.194;6.840;2022-12-18T14:41:20;0.80;99.90
18083;DHT22;9168;51.194;6.840;2022-12-18T14:43:49;0.70;99.90
18083;DHT22;9168;51.194;6.840;2022-12-18T14:46:32;0.70;99.90
18083;DHT22;9168;51.194;6.840;2022-12-18T14:49:02;0.70;99.90
18083;DHT22;9168;51.194;6.840;2022-12-18T14:51:33;0.70;99.90
18083;DHT22;9168;51.194;6.840;2022-12-18T14:54:01;0.70;99.90
18083;DHT22;9168;51.194;6.840;2022-12-18T14:56:30;0.60;99.90
18083;DHT22;9168;51.194;6.840;2022-12-18T14:58:59;0.60;99.90
18083;DHT22;9168;51.194;6.840;2022-12-18T15:01:28;0.60;99.90
18083;DHT22;9168;51.194;6.840;2022-12-18T15:03:57;0.60;99.90
18083;DHT22;9168;51.194;6.840;2022-12-18T15:06:28;0.60;99.90
18083;DHT22;9168;51.194;6.840;2022-12-18T15:08:57;0.60;99.90
18083;DHT22;9168;51.194;6.840;2022-12-18T15:11:35;0.60;99.90
18083;DHT22;9168;51.194;6.840;2022-12-18T15:14:23;0.60;99.90
18083;DHT22;9168;51.194;6.840;2022-12-18T15:16:52;0.60;99.90
18083;DHT22;9168;51.194;6.840;2022-12-18T15:19:22;0.60;99.90
18083;DHT22;9168;51.194;6.840;2022-12-18T15:21:51;0.60;99.90
18083;DHT22;9168;51.194;6.840;2022-12-18T15:24:23;0.60;99.90
18083;DHT22;9168;51.194;6.840;2022-12-18T15:26:51;0.60;99.90
18083;DHT22;9168;51.194;6.840;2022-12-18T15:29:20;0.50;99.90
18083;DHT22;9168;51.194;6.840;2022-12-18T15:32:02;0.50;99.90
18083;DHT22;9168;51.194;6.840;2022-12-18T15:34:29;0.60;99.90
18083;DHT22;9168;51.194;6.840;2022-12-18T15:36:56;0.60;99.90
18083;DHT22;9168;51.194;6.840;2022-12-18T15:39:25;0.50;99.90
18083;DHT22;9168;51.194;6.840;2022-12-18T15:41:52;0.50;99.90
18083;DHT22;9168;51.194;6.840;2022-12-18T15:44:36;0.50;99.90
18083;DHT22;9168;51.194;6.840;2022-12-18T15:47:09;0.40;99.90
18083;DHT22;9168;51.194;6.840;2022-12-18T15:49:36;0.40;99.90
18083;DHT22;9168;51.194;6.840;2022-12-18T15:52:04;0.50;99.90
18083;DHT22;9168;51.194;6.840;2022-12-18T15:54:32;0.50;99.90
18083;DHT22;9168;51.194;6.840;2022-12-18T15:57:17;0.40;99.90
18083;DHT22;9168;51.194;6.840;2022-12-18T15:59:49;0.50;99.90
18083;DHT22;9168;51.194;6.840;2022-12-18T16:02:18;0.30;99.90
18083;DHT22;9168;51.194;6.840;2022-12-18T16:04:45;0.40;99.90
18083;DHT22;9168;51.194;6.840;2022-12-18T16:07:12;0.30;99.90
18083;DHT22;9168;51.194;6.840;2022-12-18T16:09:41;0.40;99.90
18083;DHT22;9168;51.194;6.840;2022-12-18T16:12:15;0.40;99.90
18083;DHT22;9168;51.194;6.840;2022-12-18T16:14:42;0.40;99.90
18083;DHT22;9168;51.194;6.840;2022-12-18T16:17:11;0.30;99.90
18083;DHT22;9168;51.194;6.840;2022-12-18T16:19:38;0.20;99.90
18083;DHT22;9168;51.194;6.840;2022-12-18T16:22:05;0.20;99.90
18083;DHT22;9168;51.194;6.840;2022-12-18T16:24:33;0.20;99.90